KJXN/JXN METAR and TAF weather

Enter ICAO airport designator
Station Type Date Time Source
KJXN METAR 2022/01/29 11:56 UTC NOAA

KJXN 291156Z 25003KT 10SM BKN042 M22/M24 A3021 RMK AO2 SLP258 T12171239 11206 21228 55000


Station Type Date Time Source
KJXN Decoded METAR 2022/01/29 11:56 UTC NOAA

JACKSON COUNTY-REYNOLDS, MI, United States (KJXN) 42-16N 084-28W
Jan 29, 2022 - 06:56 AM EST / 2022.01.29 1156 UTC
Wind: from the WSW (250 degrees) at 3 MPH (3 KT):0
Visibility: 10 mile(s):0
Sky conditions: mostly cloudy
Temperature: -7.1 F (-21.7 C)
Dew Point: -11.0 F (-23.9 C)
Relative Humidity: 82%
Pressure (altimeter): 30.21 in. Hg (1023 hPa)
Pressure tendency: 0.00 inches (0.0 hPa) lower than three hours ago
ob: KJXN 291156Z 25003KT 10SM BKN042 M22/M24 A3021 RMK AO2 SLP258 T12171239 11206 21228 55000
cycle: 12

Station Type Date Time Source
KJXN TAF 2022/01/29 12:33 UTC NOAA

TAF KJXN 291130Z 2912/3012 36005KT P6SM SKC
FM291600 23007KT P6SM BKN050
FM291900 24008KT P6SM BKN035
FM300000 18007KT P6SM OVC050
FM300800 16005KT P6SM -SN OVC050

Example: see airport list